sensor_id;sensor_type;location;lat;lon;timestamp;P1;durP1;ratioP1;P2;durP2;ratioP2
32906;SDS011;19259;51.590;5.320;2022-08-03T00:01:25;9.93;;;4.25;;
32906;SDS011;19259;51.590;5.320;2022-08-03T00:03:53;12.58;;;3.87;;
32906;SDS011;19259;51.590;5.320;2022-08-03T00:06:20;17.20;;;3.65;;
32906;SDS011;19259;51.590;5.320;2022-08-03T00:08:50;14.07;;;4.03;;
32906;SDS011;19259;51.590;5.320;2022-08-03T00:11:17;10.75;;;3.67;;
32906;SDS011;19259;51.590;5.320;2022-08-03T00:13:45;10.32;;;3.80;;
32906;SDS011;19259;51.590;5.320;2022-08-03T00:16:12;14.53;;;4.03;;
32906;SDS011;19259;51.590;5.320;2022-08-03T00:18:49;9.83;;;3.98;;
32906;SDS011;19259;51.590;5.320;2022-08-03T00:21:17;14.30;;;3.92;;
32906;SDS011;19259;51.590;5.320;2022-08-03T00:23:45;13.95;;;3.50;;
32906;SDS011;19259;51.590;5.320;2022-08-03T00:26:14;13.83;;;4.08;;
32906;SDS011;19259;51.590;5.320;2022-08-03T00:28:42;14.28;;;3.60;;
32906;SDS011;19259;51.590;5.320;2022-08-03T00:31:09;10.75;;;3.75;;
32906;SDS011;19259;51.590;5.320;2022-08-03T00:33:37;12.63;;;4.20;;
32906;SDS011;19259;51.590;5.320;2022-08-03T00:36:04;15.45;;;3.75;;
32906;SDS011;19259;51.590;5.320;2022-08-03T00:38:32;11.48;;;4.10;;
32906;SDS011;19259;51.590;5.320;2022-08-03T00:40:59;11.78;;;4.08;;
32906;SDS011;19259;51.590;5.320;2022-08-03T00:43:27;9.05;;;3.83;;
32906;SDS011;19259;51.590;5.320;2022-08-03T00:45:54;10.85;;;4.03;;
32906;SDS011;19259;51.590;5.320;2022-08-03T00:48:23;15.68;;;4.47;;
32906;SDS011;19259;51.590;5.320;2022-08-03T00:50:51;15.00;;;4.35;;
32906;SDS011;19259;51.590;5.320;2022-08-03T00:53:19;11.40;;;4.22;;
32906;SDS011;19259;51.590;5.320;2022-08-03T00:55:47;15.90;;;3.83;;
32906;SDS011;19259;51.590;5.320;2022-08-03T00:58:15;11.08;;;3.95;;
32906;SDS011;19259;51.590;5.320;2022-08-03T01:00:42;10.28;;;4.47;;
32906;SDS011;19259;51.590;5.320;2022-08-03T01:03:10;14.25;;;3.92;;
32906;SDS011;19259;51.590;5.320;2022-08-03T01:08:42;9.65;;;3.70;;
32906;SDS011;19259;51.590;5.320;2022-08-03T01:11:32;13.10;;;4.15;;
32906;SDS011;19259;51.590;5.320;2022-08-03T01:14:01;12.80;;;4.17;;
32906;SDS011;19259;51.590;5.320;2022-08-03T01:16:30;11.50;;;4.13;;
32906;SDS011;19259;51.590;5.320;2022-08-03T01:25:13;8.13;;;4.00;;
32906;SDS011;19259;51.590;5.320;2022-08-03T01:30:48;10.63;;;3.55;;
32906;SDS011;19259;51.590;5.320;2022-08-03T01:33:18;8.88;;;4.28;;
32906;SDS011;19259;51.590;5.320;2022-08-03T01:38:26;9.90;;;4.05;;
32906;SDS011;19259;51.590;5.320;2022-08-03T01:41:10;11.12;;;4.33;;
32906;SDS011;19259;51.590;5.320;2022-08-03T01:43:35;9.65;;;3.95;;
32906;SDS011;19259;51.590;5.320;2022-08-03T01:46:05;10.48;;;4.00;;
32906;SDS011;19259;51.590;5.320;2022-08-03T01:48:35;9.35;;;4.15;;
32906;SDS011;19259;51.590;5.320;2022-08-03T01:51:04;9.70;;;3.80;;
32906;SDS011;19259;51.590;5.320;2022-08-03T01:53:37;10.30;;;3.77;;
32906;SDS011;19259;51.590;5.320;2022-08-03T01:56:09;9.75;;;3.87;;
32906;SDS011;19259;51.590;5.320;2022-08-03T01:58:39;10.32;;;4.10;;
32906;SDS011;19259;51.590;5.320;2022-08-03T02:01:07;14.20;;;4.22;;
32906;SDS011;19259;51.590;5.320;2022-08-03T02:03:38;12.70;;;4.47;;
32906;SDS011;19259;51.590;5.320;2022-08-03T02:06:09;11.97;;;4.97;;
32906;SDS011;19259;51.590;5.320;2022-08-03T02:08:38;10.60;;;4.40;;
32906;SDS011;19259;51.590;5.320;2022-08-03T02:11:07;8.88;;;4.12;;
32906;SDS011;19259;51.590;5.320;2022-08-03T02:13:35;11.73;;;4.62;;
32906;SDS011;19259;51.590;5.320;2022-08-03T02:16:06;12.40;;;5.22;;
32906;SDS011;19259;51.590;5.320;2022-08-03T02:18:34;16.60;;;4.90;;
32906;SDS011;19259;51.590;5.320;2022-08-03T02:21:04;9.93;;;4.78;;
32906;SDS011;19259;51.590;5.320;2022-08-03T02:23:35;12.55;;;4.67;;
32906;SDS011;19259;51.590;5.320;2022-08-03T02:26:04;13.25;;;4.87;;
32906;SDS011;19259;51.590;5.320;2022-08-03T02:28:35;11.53;;;4.42;;
32906;SDS011;19259;51.590;5.320;2022-08-03T02:31:06;12.47;;;4.55;;
32906;SDS011;19259;51.590;5.320;2022-08-03T02:33:43;12.82;;;4.55;;
32906;SDS011;19259;51.590;5.320;2022-08-03T02:36:19;16.05;;;5.05;;
32906;SDS011;19259;51.590;5.320;2022-08-03T02:38:51;13.43;;;4.83;;
32906;SDS011;19259;51.590;5.320;2022-08-03T02:41:23;13.60;;;5.25;;
32906;SDS011;19259;51.590;5.320;2022-08-03T02:43:53;11.68;;;4.50;;
32906;SDS011;19259;51.590;5.320;2022-08-03T02:46:24;12.80;;;4.87;;
32906;SDS011;19259;51.590;5.320;2022-08-03T02:48:53;12.13;;;4.95;;
32906;SDS011;19259;51.590;5.320;2022-08-03T02:51:22;12.90;;;5.03;;
32906;SDS011;19259;51.590;5.320;2022-08-03T02:53:52;13.13;;;5.05;;
32906;SDS011;19259;51.590;5.320;2022-08-03T02:56:23;11.90;;;4.97;;
32906;SDS011;19259;51.590;5.320;2022-08-03T02:58:54;19.98;;;4.53;;
32906;SDS011;19259;51.590;5.320;2022-08-03T03:01:27;9.88;;;4.92;;
32906;SDS011;19259;51.590;5.320;2022-08-03T03:03:57;10.88;;;4.25;;
32906;SDS011;19259;51.590;5.320;2022-08-03T03:06:25;15.85;;;5.80;;
32906;SDS011;19259;51.590;5.320;2022-08-03T03:08:54;14.25;;;5.67;;
32906;SDS011;19259;51.590;5.320;2022-08-03T03:11:22;14.18;;;5.50;;
32906;SDS011;19259;51.590;5.320;2022-08-03T03:13:52;15.83;;;7.45;;
32906;SDS011;19259;51.590;5.320;2022-08-03T03:16:21;15.63;;;7.37;;
32906;SDS011;19259;51.590;5.320;2022-08-03T03:18:51;11.20;;;6.60;;
32906;SDS011;19259;51.590;5.320;2022-08-03T03:21:23;16.07;;;7.85;;
32906;SDS011;19259;51.590;5.320;2022-08-03T03:23:53;16.57;;;8.75;;
32906;SDS011;19259;51.590;5.320;2022-08-03T03:26:22;15.80;;;8.43;;
32906;SDS011;19259;51.590;5.320;2022-08-03T03:28:50;16.93;;;8.50;;
32906;SDS011;19259;51.590;5.320;2022-08-03T03:31:18;20.88;;;7.37;;
32906;SDS011;19259;51.590;5.320;2022-08-03T03:33:48;15.05;;;7.60;;
32906;SDS011;19259;51.590;5.320;2022-08-03T03:36:17;17.48;;;7.10;;
32906;SDS011;19259;51.590;5.320;2022-08-03T03:38:45;22.77;;;6.75;;
32906;SDS011;19259;51.590;5.320;2022-08-03T03:41:13;15.45;;;6.92;;
32906;SDS011;19259;51.590;5.320;2022-08-03T03:43:41;11.18;;;6.12;;
32906;SDS011;19259;51.590;5.320;2022-08-03T03:46:11;12.80;;;5.55;;
32906;SDS011;19259;51.590;5.320;2022-08-03T03:48:43;13.67;;;5.70;;
32906;SDS011;19259;51.590;5.320;2022-08-03T03:51:11;13.18;;;6.35;;
32906;SDS011;19259;51.590;5.320;2022-08-03T03:53:39;15.08;;;5.58;;
32906;SDS011;19259;51.590;5.320;2022-08-03T03:56:09;13.35;;;6.42;;
32906;SDS011;19259;51.590;5.320;2022-08-03T03:58:37;14.53;;;5.80;;
32906;SDS011;19259;51.590;5.320;2022-08-03T04:01:06;25.23;;;6.10;;
32906;SDS011;19259;51.590;5.320;2022-08-03T04:03:34;17.82;;;5.58;;
32906;SDS011;19259;51.590;5.320;2022-08-03T04:06:02;13.55;;;5.65;;
32906;SDS011;19259;51.590;5.320;2022-08-03T04:08:47;13.83;;;5.87;;
32906;SDS011;19259;51.590;5.320;2022-08-03T04:11:37;12.60;;;5.60;;
32906;SDS011;19259;51.590;5.320;2022-08-03T04:14:19;16.10;;;5.30;;
32906;SDS011;19259;51.590;5.320;2022-08-03T04:17:01;15.13;;;5.00;;
32906;SDS011;19259;51.590;5.320;2022-08-03T04:19:47;13.48;;;4.92;;
32906;SDS011;19259;51.590;5.320;2022-08-03T04:22:18;12.10;;;4.92;;
32906;SDS011;19259;51.590;5.320;2022-08-03T04:24:51;12.63;;;4.90;;
32906;SDS011;19259;51.590;5.320;2022-08-03T04:27:24;14.05;;;5.22;;
32906;SDS011;19259;51.590;5.320;2022-08-03T04:29:54;11.65;;;4.80;;
32906;SDS011;19259;51.590;5.320;2022-08-03T04:32:26;9.90;;;4.53;;
32906;SDS011;19259;51.590;5.320;2022-08-03T04:34:55;10.13;;;4.75;;
32906;SDS011;19259;51.590;5.320;2022-08-03T04:37:32;10.13;;;4.17;;
32906;SDS011;19259;51.590;5.320;2022-08-03T04:40:04;18.25;;;5.12;;
32906;SDS011;19259;51.590;5.320;2022-08-03T04:42:32;13.32;;;4.90;;
32906;SDS011;19259;51.590;5.320;2022-08-03T04:45:02;9.58;;;4.12;;
32906;SDS011;19259;51.590;5.320;2022-08-03T04:47:33;11.10;;;4.42;;
32906;SDS011;19259;51.590;5.320;2022-08-03T04:50:04;12.23;;;4.78;;
32906;SDS011;19259;51.590;5.320;2022-08-03T04:52:33;16.05;;;5.15;;
32906;SDS011;19259;51.590;5.320;2022-08-03T04:55:01;11.55;;;5.08;;
32906;SDS011;19259;51.590;5.320;2022-08-03T04:57:29;7.90;;;3.45;;
32906;SDS011;19259;51.590;5.320;2022-08-03T04:59:57;13.93;;;4.45;;
32906;SDS011;19259;51.590;5.320;2022-08-03T05:02:24;10.45;;;4.60;;
32906;SDS011;19259;51.590;5.320;2022-08-03T05:04:55;9.33;;;5.03;;
32906;SDS011;19259;51.590;5.320;2022-08-03T05:07:22;11.73;;;4.65;;
32906;SDS011;19259;51.590;5.320;2022-08-03T05:09:50;11.70;;;4.87;;
32906;SDS011;19259;51.590;5.320;2022-08-03T05:12:18;10.82;;;4.78;;
32906;SDS011;19259;51.590;5.320;2022-08-03T05:14:45;12.15;;;5.53;;
32906;SDS011;19259;51.590;5.320;2022-08-03T05:17:13;11.55;;;5.33;;
32906;SDS011;19259;51.590;5.320;2022-08-03T05:19:40;19.92;;;5.03;;
32906;SDS011;19259;51.590;5.320;2022-08-03T05:22:08;12.68;;;5.30;;
32906;SDS011;19259;51.590;5.320;2022-08-03T05:24:36;14.05;;;4.92;;
32906;SDS011;19259;51.590;5.320;2022-08-03T05:27:03;11.63;;;5.25;;
32906;SDS011;19259;51.590;5.320;2022-08-03T05:29:31;16.02;;;5.60;;
32906;SDS011;19259;51.590;5.320;2022-08-03T05:31:59;10.53;;;4.37;;
32906;SDS011;19259;51.590;5.320;2022-08-03T05:34:27;17.80;;;4.67;;
32906;SDS011;19259;51.590;5.320;2022-08-03T05:36:55;14.98;;;5.85;;
32906;SDS011;19259;51.590;5.320;2022-08-03T05:39:22;8.58;;;4.33;;
32906;SDS011;19259;51.590;5.320;2022-08-03T05:41:49;16.40;;;4.70;;
32906;SDS011;19259;51.590;5.320;2022-08-03T05:44:17;12.07;;;5.28;;
32906;SDS011;19259;51.590;5.320;2022-08-03T05:46:45;14.98;;;5.35;;
32906;SDS011;19259;51.590;5.320;2022-08-03T05:49:15;8.15;;;4.60;;
32906;SDS011;19259;51.590;5.320;2022-08-03T05:51:43;16.25;;;5.42;;
32906;SDS011;19259;51.590;5.320;2022-08-03T05:54:11;11.03;;;4.87;;
32906;SDS011;19259;51.590;5.320;2022-08-03T05:56:38;20.00;;;5.00;;
32906;SDS011;19259;51.590;5.320;2022-08-03T05:59:06;12.90;;;5.42;;
32906;SDS011;19259;51.590;5.320;2022-08-03T06:01:34;20.60;;;5.90;;
32906;SDS011;19259;51.590;5.320;2022-08-03T06:04:01;11.25;;;4.67;;
32906;SDS011;19259;51.590;5.320;2022-08-03T06:06:29;14.50;;;4.75;;
32906;SDS011;19259;51.590;5.320;2022-08-03T06:08:56;10.00;;;4.50;;
32906;SDS011;19259;51.590;5.320;2022-08-03T06:11:24;14.20;;;4.33;;
32906;SDS011;19259;51.590;5.320;2022-08-03T06:13:51;12.35;;;3.83;;
32906;SDS011;19259;51.590;5.320;2022-08-03T06:16:19;14.38;;;4.53;;
32906;SDS011;19259;51.590;5.320;2022-08-03T06:18:48;19.92;;;4.62;;
32906;SDS011;19259;51.590;5.320;2022-08-03T06:21:15;11.35;;;4.42;;
32906;SDS011;19259;51.590;5.320;2022-08-03T06:23:43;14.23;;;3.60;;
32906;SDS011;19259;51.590;5.320;2022-08-03T06:26:12;15.45;;;4.12;;
32906;SDS011;19259;51.590;5.320;2022-08-03T06:28:40;13.75;;;4.90;;
32906;SDS011;19259;51.590;5.320;2022-08-03T06:31:09;10.75;;;5.05;;
32906;SDS011;19259;51.590;5.320;2022-08-03T06:33:37;16.87;;;4.20;;
32906;SDS011;19259;51.590;5.320;2022-08-03T06:36:05;9.78;;;3.65;;
32906;SDS011;19259;51.590;5.320;2022-08-03T06:38:33;13.75;;;3.90;;
32906;SDS011;19259;51.590;5.320;2022-08-03T06:41:00;15.18;;;3.55;;
32906;SDS011;19259;51.590;5.320;2022-08-03T06:43:27;13.40;;;3.62;;
32906;SDS011;19259;51.590;5.320;2022-08-03T06:45:55;12.10;;;2.77;;
32906;SDS011;19259;51.590;5.320;2022-08-03T06:48:22;11.25;;;3.20;;
32906;SDS011;19259;51.590;5.320;2022-08-03T06:50:50;14.83;;;3.17;;
32906;SDS011;19259;51.590;5.320;2022-08-03T06:53:17;8.30;;;3.27;;
32906;SDS011;19259;51.590;5.320;2022-08-03T06:55:47;12.18;;;3.05;;
32906;SDS011;19259;51.590;5.320;2022-08-03T06:58:14;10.85;;;2.87;;
32906;SDS011;19259;51.590;5.320;2022-08-03T07:00:42;12.13;;;2.45;;
32906;SDS011;19259;51.590;5.320;2022-08-03T07:03:13;12.60;;;3.22;;
32906;SDS011;19259;51.590;5.320;2022-08-03T07:05:41;13.78;;;3.12;;
32906;SDS011;19259;51.590;5.320;2022-08-03T07:08:11;10.35;;;2.85;;
32906;SDS011;19259;51.590;5.320;2022-08-03T07:10:40;12.63;;;2.85;;
32906;SDS011;19259;51.590;5.320;2022-08-03T07:13:07;12.53;;;3.00;;
32906;SDS011;19259;51.590;5.320;2022-08-03T07:15:35;14.40;;;2.83;;
32906;SDS011;19259;51.590;5.320;2022-08-03T07:18:03;17.20;;;3.27;;
32906;SDS011;19259;51.590;5.320;2022-08-03T07:20:31;13.50;;;3.10;;
32906;SDS011;19259;51.590;5.320;2022-08-03T07:22:59;15.15;;;2.83;;
32906;SDS011;19259;51.590;5.320;2022-08-03T07:25:31;9.00;;;2.33;;
32906;SDS011;19259;51.590;5.320;2022-08-03T07:27:57;12.93;;;3.15;;
32906;SDS011;19259;51.590;5.320;2022-08-03T07:30:24;12.30;;;2.65;;
32906;SDS011;19259;51.590;5.320;2022-08-03T07:32:52;19.32;;;2.75;;
32906;SDS011;19259;51.590;5.320;2022-08-03T07:35:21;10.95;;;2.70;;
32906;SDS011;19259;51.590;5.320;2022-08-03T07:37:49;7.92;;;2.10;;
32906;SDS011;19259;51.590;5.320;2022-08-03T07:40:16;11.78;;;2.52;;
32906;SDS011;19259;51.590;5.320;2022-08-03T07:42:44;5.87;;;1.72;;
32906;SDS011;19259;51.590;5.320;2022-08-03T07:45:11;11.97;;;2.40;;
32906;SDS011;19259;51.590;5.320;2022-08-03T07:47:39;13.53;;;2.40;;
32906;SDS011;19259;51.590;5.320;2022-08-03T07:50:07;11.88;;;2.58;;
32906;SDS011;19259;51.590;5.320;2022-08-03T07:52:34;14.90;;;2.85;;
32906;SDS011;19259;51.590;5.320;2022-08-03T07:55:19;9.03;;;2.10;;
32906;SDS011;19259;51.590;5.320;2022-08-03T07:57:58;11.85;;;2.72;;
32906;SDS011;19259;51.590;5.320;2022-08-03T08:00:28;8.08;;;2.02;;
32906;SDS011;19259;51.590;5.320;2022-08-03T08:02:56;12.25;;;3.00;;
32906;SDS011;19259;51.590;5.320;2022-08-03T08:05:24;13.98;;;2.83;;
32906;SDS011;19259;51.590;5.320;2022-08-03T08:07:52;11.48;;;2.50;;
32906;SDS011;19259;51.590;5.320;2022-08-03T08:10:20;11.83;;;2.50;;
32906;SDS011;19259;51.590;5.320;2022-08-03T08:12:48;12.55;;;2.67;;
32906;SDS011;19259;51.590;5.320;2022-08-03T08:15:15;11.40;;;2.40;;
32906;SDS011;19259;51.590;5.320;2022-08-03T08:17:49;11.18;;;2.80;;
32906;SDS011;19259;51.590;5.320;2022-08-03T08:20:21;9.35;;;2.55;;
32906;SDS011;19259;51.590;5.320;2022-08-03T08:22:47;11.20;;;2.33;;
32906;SDS011;19259;51.590;5.320;2022-08-03T08:25:14;11.15;;;2.70;;
32906;SDS011;19259;51.590;5.320;2022-08-03T08:27:42;11.08;;;2.70;;
32906;SDS011;19259;51.590;5.320;2022-08-03T08:30:12;14.25;;;2.60;;
32906;SDS011;19259;51.590;5.320;2022-08-03T08:32:40;13.13;;;2.87;;
32906;SDS011;19259;51.590;5.320;2022-08-03T08:35:08;14.85;;;2.65;;
32906;SDS011;19259;51.590;5.320;2022-08-03T08:37:37;15.58;;;3.60;;
32906;SDS011;19259;51.590;5.320;2022-08-03T08:40:05;14.35;;;3.10;;
32906;SDS011;19259;51.590;5.320;2022-08-03T08:42:36;11.95;;;2.27;;
32906;SDS011;19259;51.590;5.320;2022-08-03T08:45:07;15.83;;;2.75;;
32906;SDS011;19259;51.590;5.320;2022-08-03T08:47:37;11.93;;;2.60;;
32906;SDS011;19259;51.590;5.320;2022-08-03T08:50:07;13.80;;;2.83;;
32906;SDS011;19259;51.590;5.320;2022-08-03T08:52:35;20.55;;;2.58;;
32906;SDS011;19259;51.590;5.320;2022-08-03T08:55:09;13.53;;;2.52;;
32906;SDS011;19259;51.590;5.320;2022-08-03T08:57:47;20.43;;;3.30;;
32906;SDS011;19259;51.590;5.320;2022-08-03T09:00:12;13.90;;;2.40;;
32906;SDS011;19259;51.590;5.320;2022-08-03T09:02:42;9.28;;;1.82;;
32906;SDS011;19259;51.590;5.320;2022-08-03T09:05:11;12.98;;;3.12;;
32906;SDS011;19259;51.590;5.320;2022-08-03T09:07:41;11.10;;;2.55;;
32906;SDS011;19259;51.590;5.320;2022-08-03T09:10:10;12.37;;;2.30;;
32906;SDS011;19259;51.590;5.320;2022-08-03T09:12:43;17.35;;;2.95;;
32906;SDS011;19259;51.590;5.320;2022-08-03T09:15:22;13.20;;;2.62;;
32906;SDS011;19259;51.590;5.320;2022-08-03T09:17:52;14.73;;;2.58;;
32906;SDS011;19259;51.590;5.320;2022-08-03T09:20:22;11.55;;;3.08;;
32906;SDS011;19259;51.590;5.320;2022-08-03T09:25:34;14.55;;;3.08;;
32906;SDS011;19259;51.590;5.320;2022-08-03T09:28:16;9.90;;;1.82;;
32906;SDS011;19259;51.590;5.320;2022-08-03T09:30:45;10.43;;;3.00;;
32906;SDS011;19259;51.590;5.320;2022-08-03T09:33:14;15.83;;;2.98;;
32906;SDS011;19259;51.590;5.320;2022-08-03T09:35:43;12.28;;;2.92;;
32906;SDS011;19259;51.590;5.320;2022-08-03T09:40:42;13.50;;;3.37;;
32906;SDS011;19259;51.590;5.320;2022-08-03T09:43:11;12.68;;;2.67;;
32906;SDS011;19259;51.590;5.320;2022-08-03T09:45:39;15.63;;;2.20;;
32906;SDS011;19259;51.590;5.320;2022-08-03T09:50:51;12.63;;;2.62;;
32906;SDS011;19259;51.590;5.320;2022-08-03T09:53:20;9.80;;;2.50;;
32906;SDS011;19259;51.590;5.320;2022-08-03T09:55:55;15.23;;;2.37;;
32906;SDS011;19259;51.590;5.320;2022-08-03T09:58:24;16.52;;;3.05;;
32906;SDS011;19259;51.590;5.320;2022-08-03T10:00:57;13.50;;;3.20;;
32906;SDS011;19259;51.590;5.320;2022-08-03T10:03:30;9.53;;;2.50;;
32906;SDS011;19259;51.590;5.320;2022-08-03T10:06:16;15.25;;;3.00;;
32906;SDS011;19259;51.590;5.320;2022-08-03T10:08:45;15.08;;;2.83;;
32906;SDS011;19259;51.590;5.320;2022-08-03T10:11:28;12.25;;;2.72;;
32906;SDS011;19259;51.590;5.320;2022-08-03T10:13:57;12.63;;;2.90;;
32906;SDS011;19259;51.590;5.320;2022-08-03T10:16:25;14.83;;;2.50;;
32906;SDS011;19259;51.590;5.320;2022-08-03T10:18:52;14.98;;;3.22;;
32906;SDS011;19259;51.590;5.320;2022-08-03T10:21:21;17.12;;;2.50;;
32906;SDS011;19259;51.590;5.320;2022-08-03T10:23:49;8.50;;;2.00;;
32906;SDS011;19259;51.590;5.320;2022-08-03T10:26:21;15.35;;;2.52;;
32906;SDS011;19259;51.590;5.320;2022-08-03T10:28:52;14.25;;;2.35;;
32906;SDS011;19259;51.590;5.320;2022-08-03T10:31:21;13.60;;;2.27;;
32906;SDS011;19259;51.590;5.320;2022-08-03T10:33:50;19.25;;;2.47;;
32906;SDS011;19259;51.590;5.320;2022-08-03T10:36:34;10.78;;;2.65;;
32906;SDS011;19259;51.590;5.320;2022-08-03T10:38:50;16.30;;;2.83;;
32906;SDS011;19259;51.590;5.320;2022-08-03T10:41:19;12.25;;;2.42;;
32906;SDS011;19259;51.590;5.320;2022-08-03T10:46:25;14.05;;;3.42;;
32906;SDS011;19259;51.590;5.320;2022-08-03T10:48:54;13.85;;;3.05;;
32906;SDS011;19259;51.590;5.320;2022-08-03T10:51:22;14.83;;;3.10;;
32906;SDS011;19259;51.590;5.320;2022-08-03T10:53:53;16.30;;;2.70;;
32906;SDS011;19259;51.590;5.320;2022-08-03T10:56:42;12.65;;;2.15;;
32906;SDS011;19259;51.590;5.320;2022-08-03T10:59:18;10.43;;;2.42;;
32906;SDS011;19259;51.590;5.320;2022-08-03T11:02:05;17.42;;;2.52;;
32906;SDS011;19259;51.590;5.320;2022-08-03T11:04:34;14.95;;;2.60;;
32906;SDS011;19259;51.590;5.320;2022-08-03T11:09:49;11.97;;;2.92;;
32906;SDS011;19259;51.590;5.320;2022-08-03T11:12:26;13.48;;;2.40;;
32906;SDS011;19259;51.590;5.320;2022-08-03T11:14:55;10.65;;;2.00;;
32906;SDS011;19259;51.590;5.320;2022-08-03T11:17:25;11.35;;;2.33;;
32906;SDS011;19259;51.590;5.320;2022-08-03T11:19:52;14.00;;;2.75;;
32906;SDS011;19259;51.590;5.320;2022-08-03T11:22:21;5.42;;;1.82;;
32906;SDS011;19259;51.590;5.320;2022-08-03T11:38:03;9.73;;;1.98;;
32906;SDS011;19259;51.590;5.320;2022-08-03T11:40:35;14.35;;;2.80;;
32906;SDS011;19259;51.590;5.320;2022-08-03T11:46:03;11.30;;;2.25;;
32906;SDS011;19259;51.590;5.320;2022-08-03T11:48:40;9.40;;;2.08;;
32906;SDS011;19259;51.590;5.320;2022-08-03T11:51:22;9.43;;;2.25;;
32906;SDS011;19259;51.590;5.320;2022-08-03T11:53:57;12.18;;;2.42;;
32906;SDS011;19259;51.590;5.320;2022-08-03T11:56:22;11.00;;;1.95;;
32906;SDS011;19259;51.590;5.320;2022-08-03T11:58:52;9.20;;;2.15;;
32906;SDS011;19259;51.590;5.320;2022-08-03T12:01:23;5.78;;;1.72;;
32906;SDS011;19259;51.590;5.320;2022-08-03T12:03:51;8.20;;;1.98;;
32906;SDS011;19259;51.590;5.320;2022-08-03T12:06:19;10.75;;;2.05;;
32906;SDS011;19259;51.590;5.320;2022-08-03T12:08:48;7.70;;;2.47;;
32906;SDS011;19259;51.590;5.320;2022-08-03T12:11:16;8.10;;;2.10;;
32906;SDS011;19259;51.590;5.320;2022-08-03T12:13:44;8.80;;;2.33;;
32906;SDS011;19259;51.590;5.320;2022-08-03T12:16:20;9.05;;;2.40;;
32906;SDS011;19259;51.590;5.320;2022-08-03T12:18:59;7.53;;;2.10;;
32906;SDS011;19259;51.590;5.320;2022-08-03T12:21:28;12.05;;;2.42;;
32906;SDS011;19259;51.590;5.320;2022-08-03T12:24:03;12.13;;;2.25;;
32906;SDS011;19259;51.590;5.320;2022-08-03T12:26:27;12.28;;;2.30;;
32906;SDS011;19259;51.590;5.320;2022-08-03T12:28:56;10.78;;;2.05;;
32906;SDS011;19259;51.590;5.320;2022-08-03T12:31:23;9.78;;;1.90;;
32906;SDS011;19259;51.590;5.320;2022-08-03T12:33:58;8.03;;;1.87;;
32906;SDS011;19259;51.590;5.320;2022-08-03T12:36:28;11.63;;;2.60;;
32906;SDS011;19259;51.590;5.320;2022-08-03T12:39:07;10.45;;;2.42;;
32906;SDS011;19259;51.590;5.320;2022-08-03T12:41:37;8.03;;;2.15;;
32906;SDS011;19259;51.590;5.320;2022-08-03T12:44:06;7.97;;;2.02;;
32906;SDS011;19259;51.590;5.320;2022-08-03T12:46:35;9.85;;;1.90;;
32906;SDS011;19259;51.590;5.320;2022-08-03T12:49:11;6.80;;;1.80;;
32906;SDS011;19259;51.590;5.320;2022-08-03T12:54:17;9.83;;;2.00;;
32906;SDS011;19259;51.590;5.320;2022-08-03T12:56:56;6.70;;;1.80;;
32906;SDS011;19259;51.590;5.320;2022-08-03T12:59:29;6.47;;;1.50;;
32906;SDS011;19259;51.590;5.320;2022-08-03T13:01:59;8.33;;;2.02;;
32906;SDS011;19259;51.590;5.320;2022-08-03T13:04:32;5.45;;;1.82;;
32906;SDS011;19259;51.590;5.320;2022-08-03T13:06:57;12.20;;;2.08;;
32906;SDS011;19259;51.590;5.320;2022-08-03T13:09:30;7.97;;;2.25;;
32906;SDS011;19259;51.590;5.320;2022-08-03T13:12:12;14.65;;;2.58;;
32906;SDS011;19259;51.590;5.320;2022-08-03T13:14:41;9.30;;;1.92;;
32906;SDS011;19259;51.590;5.320;2022-08-03T13:17:11;8.93;;;2.27;;
32906;SDS011;19259;51.590;5.320;2022-08-03T13:19:38;4.50;;;1.60;;
32906;SDS011;19259;51.590;5.320;2022-08-03T13:22:13;4.62;;;1.67;;
32906;SDS011;19259;51.590;5.320;2022-08-03T13:24:42;7.85;;;1.70;;
32906;SDS011;19259;51.590;5.320;2022-08-03T13:27:11;9.48;;;2.12;;
32906;SDS011;19259;51.590;5.320;2022-08-03T13:29:39;6.87;;;1.82;;
32906;SDS011;19259;51.590;5.320;2022-08-03T13:32:08;5.90;;;2.05;;
32906;SDS011;19259;51.590;5.320;2022-08-03T13:34:36;7.00;;;1.65;;
32906;SDS011;19259;51.590;5.320;2022-08-03T13:37:04;7.50;;;1.50;;
32906;SDS011;19259;51.590;5.320;2022-08-03T13:39:32;8.33;;;2.10;;
32906;SDS011;19259;51.590;5.320;2022-08-03T13:42:04;8.30;;;1.92;;
32906;SDS011;19259;51.590;5.320;2022-08-03T13:44:30;9.25;;;1.72;;
32906;SDS011;19259;51.590;5.320;2022-08-03T13:46:58;9.38;;;1.85;;
32906;SDS011;19259;51.590;5.320;2022-08-03T13:49:26;6.67;;;1.75;;
32906;SDS011;19259;51.590;5.320;2022-08-03T13:51:57;6.00;;;2.02;;
32906;SDS011;19259;51.590;5.320;2022-08-03T13:54:25;7.15;;;1.72;;
32906;SDS011;19259;51.590;5.320;2022-08-03T13:56:52;6.05;;;2.35;;
32906;SDS011;19259;51.590;5.320;2022-08-03T13:59:27;7.20;;;2.15;;
32906;SDS011;19259;51.590;5.320;2022-08-03T14:02:02;7.33;;;1.75;;
32906;SDS011;19259;51.590;5.320;2022-08-03T14:04:23;8.43;;;1.95;;
32906;SDS011;19259;51.590;5.320;2022-08-03T14:06:51;5.85;;;1.80;;
32906;SDS011;19259;51.590;5.320;2022-08-03T14:09:19;8.68;;;1.92;;
32906;SDS011;19259;51.590;5.320;2022-08-03T14:11:46;5.33;;;1.95;;
32906;SDS011;19259;51.590;5.320;2022-08-03T14:14:19;8.00;;;2.12;;
32906;SDS011;19259;51.590;5.320;2022-08-03T14:16:43;8.63;;;2.25;;
32906;SDS011;19259;51.590;5.320;2022-08-03T14:19:11;5.92;;;1.80;;
32906;SDS011;19259;51.590;5.320;2022-08-03T14:21:40;5.85;;;1.60;;
32906;SDS011;19259;51.590;5.320;2022-08-03T14:24:07;7.40;;;2.15;;
32906;SDS011;19259;51.590;5.320;2022-08-03T14:26:35;5.72;;;1.72;;
32906;SDS011;19259;51.590;5.320;2022-08-03T14:29:02;5.12;;;1.47;;
32906;SDS011;19259;51.590;5.320;2022-08-03T14:31:30;10.82;;;1.98;;
32906;SDS011;19259;51.590;5.320;2022-08-03T14:33:58;10.35;;;1.80;;
32906;SDS011;19259;51.590;5.320;2022-08-03T14:36:25;8.78;;;1.70;;
32906;SDS011;19259;51.590;5.320;2022-08-03T14:38:53;11.22;;;2.35;;
32906;SDS011;19259;51.590;5.320;2022-08-03T14:41:20;7.15;;;1.67;;
32906;SDS011;19259;51.590;5.320;2022-08-03T14:43:48;11.40;;;3.00;;
32906;SDS011;19259;51.590;5.320;2022-08-03T14:46:15;7.75;;;2.20;;
32906;SDS011;19259;51.590;5.320;2022-08-03T14:48:43;8.95;;;2.62;;
32906;SDS011;19259;51.590;5.320;2022-08-03T14:51:10;10.32;;;2.17;;
32906;SDS011;19259;51.590;5.320;2022-08-03T14:53:45;7.20;;;1.87;;
32906;SDS011;19259;51.590;5.320;2022-08-03T14:56:09;8.65;;;2.72;;
32906;SDS011;19259;51.590;5.320;2022-08-03T14:58:36;8.30;;;2.00;;
32906;SDS011;19259;51.590;5.320;2022-08-03T15:01:07;7.58;;;2.15;;
32906;SDS011;19259;51.590;5.320;2022-08-03T15:03:34;11.97;;;2.62;;
32906;SDS011;19259;51.590;5.320;2022-08-03T15:06:02;6.53;;;2.10;;
32906;SDS011;19259;51.590;5.320;2022-08-03T15:08:29;6.55;;;1.75;;
32906;SDS011;19259;51.590;5.320;2022-08-03T15:10:57;9.93;;;1.87;;
32906;SDS011;19259;51.590;5.320;2022-08-03T15:13:26;6.55;;;1.70;;
32906;SDS011;19259;51.590;5.320;2022-08-03T15:15:54;7.25;;;1.82;;
32906;SDS011;19259;51.590;5.320;2022-08-03T15:18:22;4.25;;;1.82;;
32906;SDS011;19259;51.590;5.320;2022-08-03T15:20:50;5.55;;;1.95;;
32906;SDS011;19259;51.590;5.320;2022-08-03T15:23:17;5.42;;;1.77;;
32906;SDS011;19259;51.590;5.320;2022-08-03T15:25:45;6.42;;;2.02;;
32906;SDS011;19259;51.590;5.320;2022-08-03T15:28:13;4.05;;;2.05;;
32906;SDS011;19259;51.590;5.320;2022-08-03T15:30:40;4.58;;;1.57;;
32906;SDS011;19259;51.590;5.320;2022-08-03T15:33:08;6.67;;;1.70;;
32906;SDS011;19259;51.590;5.320;2022-08-03T15:35:35;3.52;;;1.62;;
32906;SDS011;19259;51.590;5.320;2022-08-03T15:38:03;5.95;;;1.90;;
32906;SDS011;19259;51.590;5.320;2022-08-03T15:40:31;4.10;;;1.40;;